Airfield :
LOGIN :

Register | Disclaimer

   EN    FR    IT 

 










Legend :    VFR   Marginal VFR   IFR   Intensive IFR   Very Intensive IFR
Visi :
Ceiling :
>= 8 km
>= 3000ft
5 to 8 km
1000 to 3000 ft
1500m to 5 km
500 to 1000 ft
800 to 1500m
200 to 500 ft
< 800m
< 200 ft
Symbols :   Thunderstorms  Fog  Heavy snow  Heavy precipitations  Wind > 20 kt
SIGMETs :     Misc.  Thunderstorms  Icing  Turbulence  Mountain Waves  Volcanic Ashes






- Airport Elevation : 512 ft
- IATA code : URO


LFOP - Rouen Vallée de Seine

CURRENT METAR :
  • 160930Z AUTO 16008KT 9999 -RA FEW003/// BKN056/// OVC068/// ///TCU 08/07 Q1004 TEMPO 3000 RA OVC005

EXPIRED METARs :
  • 160900Z AUTO 17009KT 9999 -RA NSC 07/07 Q1004 TEMPO 3000 RA OVC005
  • 160830Z AUTO 17007KT 9000 -RA FEW004/// SCT015/// BKN040/// ///TCU 07/07 Q1004 TEMPO 3000 RA OVC005
  • 160800Z AUTO 16007KT 9999 -RA OVC005/// ///TCU 07/07 Q1004 TEMPO 3000 RA OVC005
  • 160730Z AUTO 18007KT 9999 -RADZ BKN006/// BKN048/// BKN060/// ///TCU 07/07 Q1004 TEMPO 3000 RA OVC005
  • 160700Z AUTO 18008KT 9999 -DZ BKN006/// BKN036/// BKN048/// ///TCU 07/07 Q1003 BECMG BKN037

TAF AMD TAF LFOP
Valid from the 16 at 07:00 until the 17 at 06:00 UTC


160701Z 1607/1706 17013KT 9999 BKN037
TEMPO 1607/1617 3000 RA OVC005
ATIS : +33 2 35 80 80 34
Met : +33 2 32 86 52 80



MET'MAP, your aeronautical weather chart ! - Copyright ORBIFLY December 2007 - Disclaimer

ORBIFLY MET'MAP TEAM :

Programming & Development : Alexandra Zaïnal
Concept & original design : Baudouin d'Aumeries
Assistance for programming : Marc-Olivier Méhu
Technical & hardware support : Manuel Goepfert

Contact : metmap@orbifly.com




SOURCES & CREDITS :

   NOAA